Marlow, Georgia
Current Conditions -  °F | °C
As of 5:53 AM on Friday 31 Oct 2014 (Local Time) from KSAV Reporting Station
Clear Clear  
Wind Chill: 54°   Ceiling: Unl
Heat Index: 54°   Visibility: 7mi
Dew Point: 50°   Wind: 0mph
Humidity: 86%   Direction: NA
Pressure: 29.89"   Gusts: NA
Location:  32.3167°N, 81.3986°W
Report Text: KSAV 310953Z 00000KT 7SM CLR 12/10 A2989 RMK AO2 SLP121 FIRST AUGMENTED OBSERVATION T01220100
Loading
Personal Weather Stations






























Interactive Weather Map New forecast layout! Learn more

10-Day Weather Forecast

Advertisements
Track Severe Weather on mobile